sensor_id;sensor_type;location;lat;lon;timestamp;P1;durP1;ratioP1;P2;durP2;ratioP2
438;SDS011;206;48.782;9.252;2022-09-01T00:01:54;18.20;;;17.30;;
438;SDS011;206;48.782;9.252;2022-09-01T00:04:21;18.63;;;17.73;;
438;SDS011;206;48.782;9.252;2022-09-01T00:06:50;17.60;;;16.70;;
438;SDS011;206;48.782;9.252;2022-09-01T00:09:18;23.20;;;19.10;;
438;SDS011;206;48.782;9.252;2022-09-01T00:11:48;20.27;;;19.27;;
438;SDS011;206;48.782;9.252;2022-09-01T00:14:20;20.37;;;19.40;;
438;SDS011;206;48.782;9.252;2022-09-01T00:16:48;19.47;;;18.07;;
438;SDS011;206;48.782;9.252;2022-09-01T00:19:14;18.00;;;17.10;;
438;SDS011;206;48.782;9.252;2022-09-01T00:21:41;21.47;;;17.93;;
438;SDS011;206;48.782;9.252;2022-09-01T00:24:08;17.80;;;16.80;;
438;SDS011;206;48.782;9.252;2022-09-01T00:26:36;32.60;;;17.93;;
438;SDS011;206;48.782;9.252;2022-09-01T00:29:02;20.43;;;18.97;;
438;SDS011;206;48.782;9.252;2022-09-01T00:31:28;21.17;;;19.13;;
438;SDS011;206;48.782;9.252;2022-09-01T00:33:54;19.47;;;18.07;;
438;SDS011;206;48.782;9.252;2022-09-01T00:36:20;19.03;;;17.40;;
438;SDS011;206;48.782;9.252;2022-09-01T00:38:46;18.57;;;17.37;;
438;SDS011;206;48.782;9.252;2022-09-01T00:41:12;18.73;;;17.80;;
438;SDS011;206;48.782;9.252;2022-09-01T00:46:14;20.23;;;19.20;;
438;SDS011;206;48.782;9.252;2022-09-01T00:48:50;18.53;;;17.63;;
438;SDS011;206;48.782;9.252;2022-09-01T00:51:19;22.17;;;19.20;;
438;SDS011;206;48.782;9.252;2022-09-01T00:53:45;20.60;;;19.60;;
438;SDS011;206;48.782;9.252;2022-09-01T00:56:12;19.40;;;18.40;;
438;SDS011;206;48.782;9.252;2022-09-01T00:58:38;20.53;;;18.87;;
438;SDS011;206;48.782;9.252;2022-09-01T01:01:05;22.97;;;19.60;;
438;SDS011;206;48.782;9.252;2022-09-01T01:03:32;18.40;;;17.50;;
438;SDS011;206;48.782;9.252;2022-09-01T01:05:58;19.67;;;18.67;;
438;SDS011;206;48.782;9.252;2022-09-01T01:08:30;19.80;;;18.80;;
438;SDS011;206;48.782;9.252;2022-09-01T01:11:04;20.07;;;19.10;;
438;SDS011;206;48.782;9.252;2022-09-01T01:13:45;22.53;;;20.80;;
438;SDS011;206;48.782;9.252;2022-09-01T01:16:12;20.20;;;19.20;;
438;SDS011;206;48.782;9.252;2022-09-01T01:18:39;19.50;;;18.50;;
438;SDS011;206;48.782;9.252;2022-09-01T01:21:06;19.13;;;17.60;;
438;SDS011;206;48.782;9.252;2022-09-01T01:24:04;26.50;;;18.53;;
438;SDS011;206;48.782;9.252;2022-09-01T01:26:46;18.27;;;17.37;;
438;SDS011;206;48.782;9.252;2022-09-01T01:29:12;19.57;;;16.00;;
438;SDS011;206;48.782;9.252;2022-09-01T01:31:38;20.63;;;19.63;;
438;SDS011;206;48.782;9.252;2022-09-01T01:34:04;24.83;;;19.20;;
438;SDS011;206;48.782;9.252;2022-09-01T01:36:32;19.33;;;18.30;;
438;SDS011;206;48.782;9.252;2022-09-01T01:39:03;21.93;;;20.37;;
438;SDS011;206;48.782;9.252;2022-09-01T01:41:33;19.47;;;18.47;;
438;SDS011;206;48.782;9.252;2022-09-01T01:44:00;21.40;;;20.03;;
438;SDS011;206;48.782;9.252;2022-09-01T01:46:30;20.40;;;19.00;;
438;SDS011;206;48.782;9.252;2022-09-01T01:48:58;20.90;;;17.73;;
438;SDS011;206;48.782;9.252;2022-09-01T01:51:26;18.83;;;17.90;;
438;SDS011;206;48.782;9.252;2022-09-01T01:53:53;17.43;;;16.53;;
438;SDS011;206;48.782;9.252;2022-09-01T01:56:20;18.13;;;17.23;;
438;SDS011;206;48.782;9.252;2022-09-01T01:58:49;17.33;;;15.80;;
438;SDS011;206;48.782;9.252;2022-09-01T02:01:19;19.83;;;16.90;;
438;SDS011;206;48.782;9.252;2022-09-01T02:03:48;16.23;;;15.43;;
438;SDS011;206;48.782;9.252;2022-09-01T02:06:16;16.90;;;16.00;;
438;SDS011;206;48.782;9.252;2022-09-01T02:08:43;16.63;;;15.80;;
438;SDS011;206;48.782;9.252;2022-09-01T02:11:09;16.10;;;15.30;;
438;SDS011;206;48.782;9.252;2022-09-01T02:13:37;17.97;;;17.07;;
438;SDS011;206;48.782;9.252;2022-09-01T02:16:06;17.30;;;16.40;;
438;SDS011;206;48.782;9.252;2022-09-01T02:18:37;16.93;;;16.07;;
438;SDS011;206;48.782;9.252;2022-09-01T02:21:12;16.80;;;15.63;;
438;SDS011;206;48.782;9.252;2022-09-01T02:23:45;17.20;;;16.30;;
438;SDS011;206;48.782;9.252;2022-09-01T02:26:13;18.03;;;15.70;;
438;SDS011;206;48.782;9.252;2022-09-01T02:28:40;15.67;;;14.87;;
438;SDS011;206;48.782;9.252;2022-09-01T02:31:07;17.20;;;16.30;;
438;SDS011;206;48.782;9.252;2022-09-01T02:33:35;17.13;;;16.23;;
438;SDS011;206;48.782;9.252;2022-09-01T02:36:03;16.10;;;15.30;;
438;SDS011;206;48.782;9.252;2022-09-01T02:38:32;18.47;;;17.57;;
438;SDS011;206;48.782;9.252;2022-09-01T02:40:59;17.57;;;16.67;;
438;SDS011;206;48.782;9.252;2022-09-01T02:43:26;17.87;;;16.97;;
438;SDS011;206;48.782;9.252;2022-09-01T02:45:53;17.60;;;16.70;;
438;SDS011;206;48.782;9.252;2022-09-01T02:48:24;18.60;;;17.70;;
438;SDS011;206;48.782;9.252;2022-09-01T02:50:52;20.43;;;19.43;;
438;SDS011;206;48.782;9.252;2022-09-01T02:53:17;20.60;;;18.57;;
438;SDS011;206;48.782;9.252;2022-09-01T02:55:44;19.00;;;18.03;;
438;SDS011;206;48.782;9.252;2022-09-01T02:58:10;18.60;;;16.90;;
438;SDS011;206;48.782;9.252;2022-09-01T03:00:40;19.53;;;18.23;;
438;SDS011;206;48.782;9.252;2022-09-01T03:03:07;19.50;;;18.50;;
438;SDS011;206;48.782;9.252;2022-09-01T03:05:33;18.67;;;17.73;;
438;SDS011;206;48.782;9.252;2022-09-01T03:08:03;23.47;;;19.23;;
438;SDS011;206;48.782;9.252;2022-09-01T03:10:35;19.57;;;18.57;;
438;SDS011;206;48.782;9.252;2022-09-01T03:13:07;17.90;;;16.80;;
438;SDS011;206;48.782;9.252;2022-09-01T03:15:35;18.70;;;17.83;;
438;SDS011;206;48.782;9.252;2022-09-01T03:18:02;16.13;;;14.77;;
438;SDS011;206;48.782;9.252;2022-09-01T03:20:30;17.33;;;16.43;;
438;SDS011;206;48.782;9.252;2022-09-01T03:22:58;16.87;;;16.03;;
438;SDS011;206;48.782;9.252;2022-09-01T03:25:24;18.37;;;16.40;;
438;SDS011;206;48.782;9.252;2022-09-01T03:27:51;17.20;;;16.30;;
438;SDS011;206;48.782;9.252;2022-09-01T03:30:17;18.20;;;17.30;;
438;SDS011;206;48.782;9.252;2022-09-01T03:32:43;19.20;;;17.03;;
438;SDS011;206;48.782;9.252;2022-09-01T03:35:09;19.93;;;18.93;;
438;SDS011;206;48.782;9.252;2022-09-01T03:37:35;18.47;;;17.57;;
438;SDS011;206;48.782;9.252;2022-09-01T03:40:04;18.13;;;17.23;;
438;SDS011;206;48.782;9.252;2022-09-01T03:42:30;18.33;;;17.43;;
438;SDS011;206;48.782;9.252;2022-09-01T03:44:56;17.90;;;17.00;;
438;SDS011;206;48.782;9.252;2022-09-01T03:47:22;17.67;;;16.80;;
438;SDS011;206;48.782;9.252;2022-09-01T03:49:49;17.00;;;16.10;;
438;SDS011;206;48.782;9.252;2022-09-01T03:52:16;18.73;;;17.10;;
438;SDS011;206;48.782;9.252;2022-09-01T03:54:42;18.40;;;15.97;;
438;SDS011;206;48.782;9.252;2022-09-01T03:57:09;17.40;;;15.80;;
438;SDS011;206;48.782;9.252;2022-09-01T03:59:35;17.67;;;16.77;;
438;SDS011;206;48.782;9.252;2022-09-01T04:02:09;17.27;;;16.37;;
438;SDS011;206;48.782;9.252;2022-09-01T04:04:36;16.10;;;15.30;;
438;SDS011;206;48.782;9.252;2022-09-01T04:07:02;18.23;;;15.50;;
438;SDS011;206;48.782;9.252;2022-09-01T04:09:28;16.90;;;16.03;;
438;SDS011;206;48.782;9.252;2022-09-01T04:11:53;17.37;;;16.40;;
438;SDS011;206;48.782;9.252;2022-09-01T04:14:19;18.30;;;17.40;;
438;SDS011;206;48.782;9.252;2022-09-01T04:16:45;16.50;;;15.70;;
438;SDS011;206;48.782;9.252;2022-09-01T04:19:32;19.33;;;16.20;;
438;SDS011;206;48.782;9.252;2022-09-01T04:22:01;17.87;;;16.97;;
438;SDS011;206;48.782;9.252;2022-09-01T04:24:27;18.00;;;16.20;;
438;SDS011;206;48.782;9.252;2022-09-01T04:26:55;17.00;;;16.10;;
438;SDS011;206;48.782;9.252;2022-09-01T04:29:23;17.63;;;16.77;;
438;SDS011;206;48.782;9.252;2022-09-01T04:31:53;16.97;;;16.10;;
438;SDS011;206;48.782;9.252;2022-09-01T04:34:27;18.47;;;17.57;;
438;SDS011;206;48.782;9.252;2022-09-01T04:37:00;16.67;;;15.83;;
438;SDS011;206;48.782;9.252;2022-09-01T04:39:27;18.13;;;17.23;;
438;SDS011;206;48.782;9.252;2022-09-01T04:41:53;16.90;;;16.00;;
438;SDS011;206;48.782;9.252;2022-09-01T04:44:19;18.97;;;17.10;;
438;SDS011;206;48.782;9.252;2022-09-01T04:46:46;16.90;;;16.00;;
438;SDS011;206;48.782;9.252;2022-09-01T04:49:13;17.37;;;16.43;;
438;SDS011;206;48.782;9.252;2022-09-01T04:51:43;17.97;;;17.07;;
438;SDS011;206;48.782;9.252;2022-09-01T04:54:11;17.40;;;16.50;;
438;SDS011;206;48.782;9.252;2022-09-01T04:56:39;19.83;;;16.80;;
438;SDS011;206;48.782;9.252;2022-09-01T04:59:07;16.17;;;15.40;;
438;SDS011;206;48.782;9.252;2022-09-01T05:01:34;16.10;;;15.10;;
438;SDS011;206;48.782;9.252;2022-09-01T05:04:07;17.53;;;16.63;;
438;SDS011;206;48.782;9.252;2022-09-01T05:06:35;18.37;;;17.47;;
438;SDS011;206;48.782;9.252;2022-09-01T05:09:03;16.73;;;15.90;;
438;SDS011;206;48.782;9.252;2022-09-01T05:11:29;17.53;;;15.93;;
438;SDS011;206;48.782;9.252;2022-09-01T05:13:56;21.03;;;17.27;;
438;SDS011;206;48.782;9.252;2022-09-01T05:16:22;17.90;;;17.00;;
438;SDS011;206;48.782;9.252;2022-09-01T05:18:50;20.17;;;18.80;;
438;SDS011;206;48.782;9.252;2022-09-01T05:21:21;21.03;;;19.20;;
438;SDS011;206;48.782;9.252;2022-09-01T05:23:50;18.20;;;16.57;;
438;SDS011;206;48.782;9.252;2022-09-01T05:26:19;16.40;;;15.60;;
438;SDS011;206;48.782;9.252;2022-09-01T05:28:51;18.27;;;16.03;;
438;SDS011;206;48.782;9.252;2022-09-01T05:31:19;18.20;;;17.30;;
438;SDS011;206;48.782;9.252;2022-09-01T05:33:46;19.60;;;18.60;;
438;SDS011;206;48.782;9.252;2022-09-01T05:36:16;17.43;;;16.53;;
438;SDS011;206;48.782;9.252;2022-09-01T05:38:44;16.20;;;15.40;;
438;SDS011;206;48.782;9.252;2022-09-01T05:41:12;19.23;;;15.60;;
438;SDS011;206;48.782;9.252;2022-09-01T05:43:42;17.70;;;16.80;;
438;SDS011;206;48.782;9.252;2022-09-01T05:46:13;17.97;;;17.07;;
438;SDS011;206;48.782;9.252;2022-09-01T05:48:41;16.50;;;15.70;;
438;SDS011;206;48.782;9.252;2022-09-01T05:51:08;16.87;;;16.00;;
438;SDS011;206;48.782;9.252;2022-09-01T05:53:35;17.93;;;16.53;;
438;SDS011;206;48.782;9.252;2022-09-01T05:56:05;16.50;;;15.70;;
438;SDS011;206;48.782;9.252;2022-09-01T05:58:33;17.00;;;16.17;;
438;SDS011;206;48.782;9.252;2022-09-01T06:01:00;18.00;;;15.60;;
438;SDS011;206;48.782;9.252;2022-09-01T06:03:26;20.23;;;17.03;;
438;SDS011;206;48.782;9.252;2022-09-01T06:06:00;19.47;;;17.50;;
438;SDS011;206;48.782;9.252;2022-09-01T06:08:29;19.77;;;18.73;;
438;SDS011;206;48.782;9.252;2022-09-01T06:10:55;21.33;;;18.27;;
438;SDS011;206;48.782;9.252;2022-09-01T06:13:20;20.87;;;18.50;;
438;SDS011;206;48.782;9.252;2022-09-01T06:15:47;21.27;;;17.80;;
438;SDS011;206;48.782;9.252;2022-09-01T06:18:13;19.63;;;18.33;;
438;SDS011;206;48.782;9.252;2022-09-01T06:20:41;18.87;;;17.00;;
438;SDS011;206;48.782;9.252;2022-09-01T06:23:09;24.63;;;16.27;;
438;SDS011;206;48.782;9.252;2022-09-01T06:25:38;20.27;;;15.67;;
438;SDS011;206;48.782;9.252;2022-09-01T06:28:07;23.67;;;16.33;;
438;SDS011;206;48.782;9.252;2022-09-01T06:30:36;21.67;;;15.73;;
438;SDS011;206;48.782;9.252;2022-09-01T06:33:03;16.40;;;14.00;;
438;SDS011;206;48.782;9.252;2022-09-01T06:35:33;15.47;;;14.67;;
438;SDS011;206;48.782;9.252;2022-09-01T06:38:03;14.20;;;13.50;;
438;SDS011;206;48.782;9.252;2022-09-01T06:40:30;15.97;;;14.10;;
438;SDS011;206;48.782;9.252;2022-09-01T06:42:57;14.53;;;13.80;;
438;SDS011;206;48.782;9.252;2022-09-01T06:45:24;15.97;;;14.90;;
438;SDS011;206;48.782;9.252;2022-09-01T06:47:50;14.33;;;13.70;;
438;SDS011;206;48.782;9.252;2022-09-01T06:50:17;14.10;;;13.27;;
438;SDS011;206;48.782;9.252;2022-09-01T06:52:45;13.50;;;12.80;;
438;SDS011;206;48.782;9.252;2022-09-01T06:55:14;13.20;;;12.50;;
438;SDS011;206;48.782;9.252;2022-09-01T06:57:41;14.63;;;13.73;;
438;SDS011;206;48.782;9.252;2022-09-01T07:00:18;14.30;;;13.60;;
438;SDS011;206;48.782;9.252;2022-09-01T07:02:50;13.33;;;12.63;;
438;SDS011;206;48.782;9.252;2022-09-01T07:05:18;14.00;;;13.30;;
438;SDS011;206;48.782;9.252;2022-09-01T07:07:48;16.60;;;14.83;;
438;SDS011;206;48.782;9.252;2022-09-01T07:10:15;18.67;;;15.20;;
438;SDS011;206;48.782;9.252;2022-09-01T07:12:52;16.87;;;14.73;;
438;SDS011;206;48.782;9.252;2022-09-01T07:15:22;14.90;;;13.80;;
438;SDS011;206;48.782;9.252;2022-09-01T07:17:49;17.10;;;13.90;;
438;SDS011;206;48.782;9.252;2022-09-01T07:20:20;17.13;;;12.53;;
438;SDS011;206;48.782;9.252;2022-09-01T07:22:51;12.97;;;12.27;;
438;SDS011;206;48.782;9.252;2022-09-01T07:25:18;14.70;;;13.10;;
438;SDS011;206;48.782;9.252;2022-09-01T07:27:44;13.07;;;11.60;;
438;SDS011;206;48.782;9.252;2022-09-01T07:30:15;14.23;;;13.20;;
438;SDS011;206;48.782;9.252;2022-09-01T07:32:42;9.07;;;8.57;;
438;SDS011;206;48.782;9.252;2022-09-01T07:35:09;9.37;;;8.87;;
438;SDS011;206;48.782;9.252;2022-09-01T07:37:35;11.23;;;10.63;;
438;SDS011;206;48.782;9.252;2022-09-01T07:40:05;8.90;;;8.40;;
438;SDS011;206;48.782;9.252;2022-09-01T07:42:33;7.63;;;7.23;;
438;SDS011;206;48.782;9.252;2022-09-01T07:44:59;9.30;;;8.67;;
438;SDS011;206;48.782;9.252;2022-09-01T07:47:25;10.13;;;9.63;;
438;SDS011;206;48.782;9.252;2022-09-01T07:49:53;8.33;;;7.93;;
438;SDS011;206;48.782;9.252;2022-09-01T07:52:19;9.50;;;8.43;;
438;SDS011;206;48.782;9.252;2022-09-01T07:54:45;9.50;;;9.00;;
438;SDS011;206;48.782;9.252;2022-09-01T07:57:11;9.03;;;8.53;;
438;SDS011;206;48.782;9.252;2022-09-01T07:59:36;10.30;;;9.80;;
438;SDS011;206;48.782;9.252;2022-09-01T08:02:03;9.73;;;9.23;;
438;SDS011;206;48.782;9.252;2022-09-01T08:04:30;9.40;;;8.90;;
438;SDS011;206;48.782;9.252;2022-09-01T08:06:58;9.83;;;9.33;;
438;SDS011;206;48.782;9.252;2022-09-01T08:09:24;11.00;;;10.40;;
438;SDS011;206;48.782;9.252;2022-09-01T08:11:49;12.13;;;10.03;;
438;SDS011;206;48.782;9.252;2022-09-01T08:14:16;10.53;;;9.97;;
438;SDS011;206;48.782;9.252;2022-09-01T08:16:41;9.97;;;9.47;;
438;SDS011;206;48.782;9.252;2022-09-01T08:19:07;10.37;;;9.43;;
438;SDS011;206;48.782;9.252;2022-09-01T08:21:33;12.57;;;9.73;;
438;SDS011;206;48.782;9.252;2022-09-01T08:23:59;10.07;;;9.57;;
438;SDS011;206;48.782;9.252;2022-09-01T08:26:25;10.30;;;9.80;;
438;SDS011;206;48.782;9.252;2022-09-01T08:28:51;10.30;;;9.80;;
438;SDS011;206;48.782;9.252;2022-09-01T08:31:18;12.60;;;8.60;;
438;SDS011;206;48.782;9.252;2022-09-01T08:33:45;9.57;;;9.07;;
438;SDS011;206;48.782;9.252;2022-09-01T08:36:12;9.33;;;8.50;;
438;SDS011;206;48.782;9.252;2022-09-01T08:38:39;9.40;;;8.90;;
438;SDS011;206;48.782;9.252;2022-09-01T08:41:12;9.97;;;9.47;;
438;SDS011;206;48.782;9.252;2022-09-01T08:44:02;9.00;;;8.50;;
438;SDS011;206;48.782;9.252;2022-09-01T08:46:43;7.97;;;6.87;;
438;SDS011;206;48.782;9.252;2022-09-01T08:49:14;8.03;;;7.63;;
438;SDS011;206;48.782;9.252;2022-09-01T08:54:25;7.80;;;7.40;;
438;SDS011;206;48.782;9.252;2022-09-01T08:57:22;9.30;;;8.30;;
438;SDS011;206;48.782;9.252;2022-09-01T08:59:53;8.30;;;7.90;;
438;SDS011;206;48.782;9.252;2022-09-01T09:02:22;7.67;;;7.27;;
438;SDS011;206;48.782;9.252;2022-09-01T09:10:31;6.80;;;6.40;;
438;SDS011;206;48.782;9.252;2022-09-01T09:13:20;8.10;;;7.70;;
438;SDS011;206;48.782;9.252;2022-09-01T09:15:53;7.83;;;7.43;;
438;SDS011;206;48.782;9.252;2022-09-01T09:18:57;7.67;;;7.27;;
438;SDS011;206;48.782;9.252;2022-09-01T09:21:38;7.87;;;6.50;;
438;SDS011;206;48.782;9.252;2022-09-01T09:24:09;6.87;;;6.47;;
438;SDS011;206;48.782;9.252;2022-09-01T09:26:37;6.70;;;6.30;;
438;SDS011;206;48.782;9.252;2022-09-01T09:29:03;6.93;;;6.53;;
438;SDS011;206;48.782;9.252;2022-09-01T09:31:33;8.40;;;7.97;;
438;SDS011;206;48.782;9.252;2022-09-01T09:34:15;6.33;;;5.97;;
438;SDS011;206;48.782;9.252;2022-09-01T09:36:59;7.03;;;6.63;;
438;SDS011;206;48.782;9.252;2022-09-01T09:39:40;7.40;;;7.00;;
438;SDS011;206;48.782;9.252;2022-09-01T09:42:08;7.07;;;6.67;;
438;SDS011;206;48.782;9.252;2022-09-01T09:44:43;7.93;;;7.53;;
438;SDS011;206;48.782;9.252;2022-09-01T09:47:32;6.70;;;6.30;;
438;SDS011;206;48.782;9.252;2022-09-01T09:50:09;6.10;;;5.80;;
438;SDS011;206;48.782;9.252;2022-09-01T09:52:38;5.83;;;5.53;;
438;SDS011;206;48.782;9.252;2022-09-01T09:55:06;5.73;;;5.43;;
438;SDS011;206;48.782;9.252;2022-09-01T09:57:48;5.47;;;5.17;;
438;SDS011;206;48.782;9.252;2022-09-01T10:00:19;7.07;;;6.60;;
438;SDS011;206;48.782;9.252;2022-09-01T10:02:47;6.13;;;5.73;;
438;SDS011;206;48.782;9.252;2022-09-01T10:08:11;5.30;;;5.00;;
438;SDS011;206;48.782;9.252;2022-09-01T10:10:53;5.57;;;5.27;;
438;SDS011;206;48.782;9.252;2022-09-01T10:13:20;5.63;;;5.33;;
438;SDS011;206;48.782;9.252;2022-09-01T10:15:49;4.83;;;4.53;;
438;SDS011;206;48.782;9.252;2022-09-01T10:18:31;5.80;;;5.50;;
438;SDS011;206;48.782;9.252;2022-09-01T10:21:09;4.63;;;4.27;;
438;SDS011;206;48.782;9.252;2022-09-01T10:23:41;4.90;;;4.63;;
438;SDS011;206;48.782;9.252;2022-09-01T10:26:13;4.40;;;4.10;;
438;SDS011;206;48.782;9.252;2022-09-01T10:28:56;4.73;;;4.43;;
438;SDS011;206;48.782;9.252;2022-09-01T10:31:31;4.40;;;4.10;;
438;SDS011;206;48.782;9.252;2022-09-01T10:33:58;4.30;;;3.97;;
438;SDS011;206;48.782;9.252;2022-09-01T10:36:26;4.53;;;4.23;;
438;SDS011;206;48.782;9.252;2022-09-01T10:38:53;3.60;;;3.40;;
438;SDS011;206;48.782;9.252;2022-09-01T10:44:08;4.50;;;4.20;;
438;SDS011;206;48.782;9.252;2022-09-01T10:49:12;4.50;;;4.20;;
438;SDS011;206;48.782;9.252;2022-09-01T10:51:44;6.90;;;4.40;;
438;SDS011;206;48.782;9.252;2022-09-01T10:54:47;4.40;;;4.10;;
438;SDS011;206;48.782;9.252;2022-09-01T10:57:08;7.50;;;5.50;;
438;SDS011;206;48.782;9.252;2022-09-01T10:59:45;7.00;;;5.27;;
438;SDS011;206;48.782;9.252;2022-09-01T11:02:13;5.23;;;4.93;;
438;SDS011;206;48.782;9.252;2022-09-01T11:15:43;4.93;;;4.63;;
438;SDS011;206;48.782;9.252;2022-09-01T11:18:12;4.30;;;4.00;;
438;SDS011;206;48.782;9.252;2022-09-01T11:20:53;5.17;;;4.40;;
438;SDS011;206;48.782;9.252;2022-09-01T11:25:46;4.47;;;4.17;;
438;SDS011;206;48.782;9.252;2022-09-01T11:35:56;4.03;;;3.83;;
438;SDS011;206;48.782;9.252;2022-09-01T11:38:24;4.53;;;4.23;;
438;SDS011;206;48.782;9.252;2022-09-01T11:40:56;4.10;;;3.27;;
438;SDS011;206;48.782;9.252;2022-09-01T11:43:22;3.90;;;3.70;;
438;SDS011;206;48.782;9.252;2022-09-01T11:45:57;3.47;;;3.27;;
438;SDS011;206;48.782;9.252;2022-09-01T11:48:32;4.87;;;4.57;;
438;SDS011;206;48.782;9.252;2022-09-01T11:50:58;4.30;;;4.00;;
438;SDS011;206;48.782;9.252;2022-09-01T11:53:26;3.97;;;3.77;;
438;SDS011;206;48.782;9.252;2022-09-01T11:55:52;4.10;;;3.90;;
438;SDS011;206;48.782;9.252;2022-09-01T12:01:10;3.80;;;3.60;;
438;SDS011;206;48.782;9.252;2022-09-01T12:03:36;3.70;;;3.50;;
438;SDS011;206;48.782;9.252;2022-09-01T12:06:03;4.07;;;3.87;;
438;SDS011;206;48.782;9.252;2022-09-01T12:08:35;4.47;;;4.17;;
438;SDS011;206;48.782;9.252;2022-09-01T12:13:30;3.80;;;3.60;;
438;SDS011;206;48.782;9.252;2022-09-01T12:15:57;4.37;;;4.07;;
438;SDS011;206;48.782;9.252;2022-09-01T12:18:26;4.00;;;3.80;;
438;SDS011;206;48.782;9.252;2022-09-01T12:20:54;5.83;;;3.87;;
438;SDS011;206;48.782;9.252;2022-09-01T12:23:24;3.67;;;3.47;;
438;SDS011;206;48.782;9.252;2022-09-01T12:25:56;6.20;;;3.90;;
438;SDS011;206;48.782;9.252;2022-09-01T12:28:26;4.17;;;3.93;;
438;SDS011;206;48.782;9.252;2022-09-01T12:31:01;3.70;;;3.50;;
438;SDS011;206;48.782;9.252;2022-09-01T12:33:30;3.40;;;3.20;;
438;SDS011;206;48.782;9.252;2022-09-01T12:36:13;4.63;;;3.17;;
438;SDS011;206;48.782;9.252;2022-09-01T12:38:39;3.63;;;3.23;;
438;SDS011;206;48.782;9.252;2022-09-01T12:41:21;4.90;;;4.60;;
438;SDS011;206;48.782;9.252;2022-09-01T12:43:55;4.70;;;4.10;;
438;SDS011;206;48.782;9.252;2022-09-01T12:46:40;5.10;;;3.70;;
438;SDS011;206;48.782;9.252;2022-09-01T12:49:33;3.37;;;3.17;;
438;SDS011;206;48.782;9.252;2022-09-01T12:52:05;4.03;;;3.83;;
438;SDS011;206;48.782;9.252;2022-09-01T12:57:23;3.53;;;3.33;;
438;SDS011;206;48.782;9.252;2022-09-01T13:00:07;3.60;;;3.40;;
438;SDS011;206;48.782;9.252;2022-09-01T13:02:35;3.97;;;3.77;;
438;SDS011;206;48.782;9.252;2022-09-01T13:07:57;4.67;;;4.37;;
438;SDS011;206;48.782;9.252;2022-09-01T13:10:30;4.13;;;3.90;;
438;SDS011;206;48.782;9.252;2022-09-01T13:12:58;4.63;;;4.33;;
438;SDS011;206;48.782;9.252;2022-09-01T13:15:25;3.77;;;3.57;;
438;SDS011;206;48.782;9.252;2022-09-01T13:17:51;4.03;;;3.83;;
438;SDS011;206;48.782;9.252;2022-09-01T13:20:18;4.03;;;3.83;;
438;SDS011;206;48.782;9.252;2022-09-01T13:22:43;3.83;;;3.63;;
438;SDS011;206;48.782;9.252;2022-09-01T13:25:13;3.80;;;3.60;;
438;SDS011;206;48.782;9.252;2022-09-01T13:27:43;3.77;;;3.40;;
438;SDS011;206;48.782;9.252;2022-09-01T13:30:12;4.97;;;4.30;;
438;SDS011;206;48.782;9.252;2022-09-01T13:32:40;4.00;;;3.80;;
438;SDS011;206;48.782;9.252;2022-09-01T13:35:07;3.93;;;3.73;;
438;SDS011;206;48.782;9.252;2022-09-01T13:37:33;4.60;;;4.30;;
438;SDS011;206;48.782;9.252;2022-09-01T13:39:58;4.13;;;3.53;;
438;SDS011;206;48.782;9.252;2022-09-01T13:42:24;3.57;;;3.37;;
438;SDS011;206;48.782;9.252;2022-09-01T13:44:49;3.63;;;3.43;;
438;SDS011;206;48.782;9.252;2022-09-01T13:47:15;3.57;;;3.37;;
438;SDS011;206;48.782;9.252;2022-09-01T13:49:41;3.40;;;2.80;;
438;SDS011;206;48.782;9.252;2022-09-01T13:52:06;4.83;;;3.43;;
438;SDS011;206;48.782;9.252;2022-09-01T13:54:32;3.23;;;3.03;;
438;SDS011;206;48.782;9.252;2022-09-01T13:56:57;3.87;;;3.70;;
438;SDS011;206;48.782;9.252;2022-09-01T13:59:23;4.27;;;3.30;;
438;SDS011;206;48.782;9.252;2022-09-01T14:01:49;3.50;;;3.13;;
438;SDS011;206;48.782;9.252;2022-09-01T14:04:15;3.93;;;3.73;;
438;SDS011;206;48.782;9.252;2022-09-01T14:06:41;3.70;;;3.50;;
438;SDS011;206;48.782;9.252;2022-09-01T14:09:11;5.87;;;3.93;;
438;SDS011;206;48.782;9.252;2022-09-01T14:11:37;4.50;;;3.63;;
438;SDS011;206;48.782;9.252;2022-09-01T14:14:03;4.30;;;4.00;;
438;SDS011;206;48.782;9.252;2022-09-01T14:16:29;4.70;;;3.83;;
438;SDS011;206;48.782;9.252;2022-09-01T14:18:54;4.23;;;3.97;;
438;SDS011;206;48.782;9.252;2022-09-01T14:21:20;3.80;;;3.60;;
438;SDS011;206;48.782;9.252;2022-09-01T14:23:46;4.20;;;3.13;;
438;SDS011;206;48.782;9.252;2022-09-01T14:26:12;3.67;;;3.47;;
438;SDS011;206;48.782;9.252;2022-09-01T14:28:40;3.73;;;3.53;;
438;SDS011;206;48.782;9.252;2022-09-01T14:31:10;3.80;;;3.60;;
438;SDS011;206;48.782;9.252;2022-09-01T14:33:36;3.00;;;2.80;;
438;SDS011;206;48.782;9.252;2022-09-01T14:36:03;3.63;;;3.10;;
438;SDS011;206;48.782;9.252;2022-09-01T14:38:30;3.70;;;3.50;;
438;SDS011;206;48.782;9.252;2022-09-01T14:40:56;3.60;;;3.40;;
438;SDS011;206;48.782;9.252;2022-09-01T14:43:22;6.47;;;3.53;;
438;SDS011;206;48.782;9.252;2022-09-01T14:45:48;4.10;;;3.70;;
438;SDS011;206;48.782;9.252;2022-09-01T14:48:15;3.47;;;3.17;;
438;SDS011;206;48.782;9.252;2022-09-01T14:50:43;3.53;;;3.33;;
438;SDS011;206;48.782;9.252;2022-09-01T14:53:12;3.67;;;3.47;;
438;SDS011;206;48.782;9.252;2022-09-01T14:55:38;3.03;;;2.83;;
438;SDS011;206;48.782;9.252;2022-09-01T14:58:04;3.10;;;2.50;;
438;SDS011;206;48.782;9.252;2022-09-01T15:00:30;2.73;;;2.50;;
438;SDS011;206;48.782;9.252;2022-09-01T15:02:59;3.30;;;3.10;;
438;SDS011;206;48.782;9.252;2022-09-01T15:05:25;3.23;;;3.03;;
438;SDS011;206;48.782;9.252;2022-09-01T15:07:51;3.13;;;2.93;;
438;SDS011;206;48.782;9.252;2022-09-01T15:10:19;3.20;;;3.00;;
438;SDS011;206;48.782;9.252;2022-09-01T15:12:47;3.13;;;2.93;;
438;SDS011;206;48.782;9.252;2022-09-01T15:15:14;3.77;;;3.57;;
438;SDS011;206;48.782;9.252;2022-09-01T15:17:40;3.17;;;3.00;;
438;SDS011;206;48.782;9.252;2022-09-01T15:20:07;3.53;;;3.33;;
438;SDS011;206;48.782;9.252;2022-09-01T15:22:52;3.57;;;3.40;;
438;SDS011;206;48.782;9.252;2022-09-01T15:25:17;3.50;;;3.30;;
438;SDS011;206;48.782;9.252;2022-09-01T15:27:43;3.63;;;3.50;;
438;SDS011;206;48.782;9.252;2022-09-01T15:30:10;3.80;;;3.30;;
438;SDS011;206;48.782;9.252;2022-09-01T15:32:40;3.93;;;3.37;;
438;SDS011;206;48.782;9.252;2022-09-01T15:35:07;2.87;;;2.70;;
438;SDS011;206;48.782;9.252;2022-09-01T15:37:33;2.90;;;2.70;;
438;SDS011;206;48.782;9.252;2022-09-01T15:39:59;4.23;;;3.70;;
438;SDS011;206;48.782;9.252;2022-09-01T15:42:25;2.60;;;2.40;;
438;SDS011;206;48.782;9.252;2022-09-01T15:44:51;3.40;;;2.63;;
438;SDS011;206;48.782;9.252;2022-09-01T15:47:16;3.10;;;2.90;;
438;SDS011;206;48.782;9.252;2022-09-01T15:49:42;3.10;;;2.80;;
438;SDS011;206;48.782;9.252;2022-09-01T15:52:08;4.47;;;2.97;;
438;SDS011;206;48.782;9.252;2022-09-01T15:54:36;3.47;;;2.47;;
438;SDS011;206;48.782;9.252;2022-09-01T15:57:02;3.10;;;2.87;;
438;SDS011;206;48.782;9.252;2022-09-01T15:59:29;3.00;;;2.80;;
438;SDS011;206;48.782;9.252;2022-09-01T16:01:54;3.43;;;2.90;;
438;SDS011;206;48.782;9.252;2022-09-01T16:04:21;3.17;;;2.97;;
438;SDS011;206;48.782;9.252;2022-09-01T16:06:48;3.37;;;3.17;;
438;SDS011;206;48.782;9.252;2022-09-01T16:09:15;3.00;;;2.80;;
438;SDS011;206;48.782;9.252;2022-09-01T16:11:42;2.90;;;2.70;;
438;SDS011;206;48.782;9.252;2022-09-01T16:14:08;9.93;;;3.77;;
438;SDS011;206;48.782;9.252;2022-09-01T16:16:45;3.70;;;2.97;;
438;SDS011;206;48.782;9.252;2022-09-01T16:25:06;4.10;;;3.90;;
438;SDS011;206;48.782;9.252;2022-09-01T16:27:38;3.13;;;3.00;;
438;SDS011;206;48.782;9.252;2022-09-01T16:30:06;3.53;;;3.33;;
438;SDS011;206;48.782;9.252;2022-09-01T16:32:37;3.37;;;3.17;;
438;SDS011;206;48.782;9.252;2022-09-01T16:35:06;3.90;;;2.97;;
438;SDS011;206;48.782;9.252;2022-09-01T16:46:01;3.13;;;2.93;;
438;SDS011;206;48.782;9.252;2022-09-01T16:49:11;3.90;;;3.70;;